Time;durP1;ratioP1;P1;durP2;ratioP2;P2;SDS_P1;SDS_P2;PMS_P1;PMS_P2;Temp;Humidity;BMP_temperature;BMP_pressure;BME280_temperature;BME280_humidity;BME280_pressure;Samples;Min_cycle;Max_cycle;Signal;HPM_P1;HPM_P2
2024/02/17 00:01:20;;;;;;;15.93;10.03;;;10.40;99.90;;;;;;6214668;23;20000;-78
2024/02/17 00:03:45;;;;;;;15.30;8.83;;;10.40;99.90;;;;;;6214831;23;20004;-78
2024/02/17 00:06:11;;;;;;;16.67;9.67;;;10.40;99.90;;;;;;6214666;23;20009;-77
2024/02/17 00:08:36;;;;;;;18.23;9.63;;;10.40;99.90;;;;;;6215584;23;20031;-78
2024/02/17 00:11:03;;;;;;;18.43;9.63;;;10.30;99.90;;;;;;6215570;23;20001;-78
2024/02/17 00:13:29;;;;;;;18.10;9.63;;;10.30;99.90;;;;;;6215116;23;20008;-78
2024/02/17 00:15:54;;;;;;;18.23;10.40;;;10.30;99.90;;;;;;6214370;23;20346;-78
2024/02/17 00:18:23;;;;;;;19.17;10.53;;;10.20;99.90;;;;;;6214871;23;20051;-77
2024/02/17 00:20:48;;;;;;;18.77;11.17;;;10.20;99.90;;;;;;6215075;23;19997;-78
2024/02/17 00:23:14;;;;;;;17.57;10.63;;;10.20;99.90;;;;;;6214807;23;20034;-78
2024/02/17 00:25:40;;;;;;;16.10;10.80;;;10.20;99.90;;;;;;6214604;23;20331;-77
2024/02/17 00:28:06;;;;;;;18.03;11.07;;;10.20;99.90;;;;;;6214681;23;20003;-78
2024/02/17 00:30:31;;;;;;;18.03;11.10;;;10.20;99.90;;;;;;6215315;23;20024;-78
2024/02/17 00:32:57;;;;;;;21.60;11.03;;;10.20;99.90;;;;;;6214899;23;20407;-78
2024/02/17 00:35:22;;;;;;;15.90;10.97;;;10.20;99.90;;;;;;6214472;23;19997;-78
2024/02/17 00:37:48;;;;;;;19.57;11.20;;;10.20;99.90;;;;;;6215073;23;20005;-78
2024/02/17 00:40:13;;;;;;;17.33;10.63;;;10.10;99.90;;;;;;6214766;23;19997;-78
2024/02/17 00:42:40;;;;;;;18.00;10.40;;;10.10;99.90;;;;;;6214755;23;20056;-78
2024/02/17 00:45:06;;;;;;;17.07;10.90;;;10.20;99.90;;;;;;6214834;23;20371;-78
2024/02/17 00:47:31;;;;;;;16.23;10.40;;;10.10;99.90;;;;;;6214831;23;20001;-77
2024/02/17 00:49:57;;;;;;;18.07;10.23;;;10.10;99.90;;;;;;6214740;23;20388;-78
2024/02/17 00:52:22;;;;;;;20.83;11.17;;;10.10;99.90;;;;;;6214279;23;19992;-77
2024/02/17 00:54:48;;;;;;;14.10;10.80;;;10.10;99.90;;;;;;6214029;23;20000;-78
2024/02/17 00:57:13;;;;;;;17.17;10.57;;;10.10;99.90;;;;;;6214188;23;20005;-77
2024/02/17 00:59:39;;;;;;;16.40;10.57;;;10.10;99.90;;;;;;6214337;23;19997;-78
2024/02/17 01:02:04;;;;;;;15.93;11.20;;;10.00;99.90;;;;;;6214465;23;20007;-78
2024/02/17 01:04:30;;;;;;;21.47;11.27;;;10.00;99.90;;;;;;6213632;23;19997;-78
2024/02/17 01:06:55;;;;;;;15.67;10.33;;;10.00;99.90;;;;;;6214321;23;20004;-78
2024/02/17 01:09:21;;;;;;;18.23;11.03;;;10.00;99.90;;;;;;6214087;23;20057;-78
2024/02/17 01:11:46;;;;;;;20.30;12.03;;;10.00;99.90;;;;;;6213989;23;20050;-78
2024/02/17 01:14:12;;;;;;;17.90;11.20;;;10.00;99.90;;;;;;6214012;23;20001;-78
2024/02/17 01:16:38;;;;;;;15.97;10.43;;;10.00;99.90;;;;;;6214230;23;20009;-77
2024/02/17 01:19:03;;;;;;;15.00;11.37;;;10.00;99.90;;;;;;6214848;23;20077;-78
2024/02/17 01:21:31;;;;;;;18.47;11.53;;;10.00;99.90;;;;;;6214506;23;20075;-77
2024/02/17 01:23:58;;;;;;;20.97;11.80;;;10.00;99.90;;;;;;6214261;23;20008;-78
2024/02/17 01:26:23;;;;;;;23.97;12.30;;;10.00;99.90;;;;;;6214330;23;20031;-77
2024/02/17 01:28:49;;;;;;;19.63;11.70;;;10.00;99.90;;;;;;6214192;23;20008;-77
2024/02/17 01:31:14;;;;;;;20.17;13.07;;;10.00;99.90;;;;;;6214675;23;20430;-77
2024/02/17 01:33:40;;;;;;;18.27;12.07;;;10.00;99.90;;;;;;6213851;23;20020;-78
2024/02/17 01:36:13;;;;;;;19.20;12.80;;;10.00;99.90;;;;;;6214435;23;20001;-77
2024/02/17 01:38:39;;;;;;;23.03;13.20;;;10.00;99.90;;;;;;6214445;23;20008;-77
2024/02/17 01:41:04;;;;;;;20.40;13.07;;;10.00;99.90;;;;;;6214299;23;20023;-78
2024/02/17 01:43:30;;;;;;;19.87;13.87;;;10.00;99.90;;;;;;6214160;23;20067;-77
2024/02/17 01:45:55;;;;;;;23.70;13.30;;;10.00;99.90;;;;;;6213838;23;20389;-77
2024/02/17 01:48:21;;;;;;;17.30;12.17;;;10.00;99.90;;;;;;6214145;23;20497;-78
2024/02/17 01:50:47;;;;;;;18.80;12.00;;;10.00;99.90;;;;;;6214299;23;20032;-78
2024/02/17 01:53:14;;;;;;;20.73;13.30;;;10.00;99.90;;;;;;6214232;23;20058;-78
2024/02/17 01:55:40;;;;;;;20.07;12.50;;;10.00;99.90;;;;;;6214095;23;20005;-78
2024/02/17 01:58:05;;;;;;;19.20;13.40;;;10.00;99.90;;;;;;6214316;23;20009;-78
2024/02/17 02:00:32;;;;;;;20.60;13.00;;;10.00;99.90;;;;;;6215351;23;20000;-78
2024/02/17 02:02:58;;;;;;;20.57;12.70;;;10.00;99.90;;;;;;6213852;23;20008;-77
2024/02/17 02:05:24;;;;;;;18.57;13.33;;;10.00;99.90;;;;;;6214067;23;20008;-78
2024/02/17 02:07:49;;;;;;;21.83;12.90;;;10.00;99.90;;;;;;6213712;23;20036;-78
2024/02/17 02:10:15;;;;;;;22.37;13.57;;;10.00;99.90;;;;;;6214514;23;20001;-77
2024/02/17 02:12:41;;;;;;;18.40;13.17;;;10.00;99.90;;;;;;6214309;23;20007;-77
2024/02/17 02:15:10;;;;;;;19.60;13.07;;;10.00;99.90;;;;;;6213221;23;20008;-78
2024/02/17 02:17:39;;;;;;;20.77;13.70;;;10.00;99.90;;;;;;6213675;23;20020;-78
2024/02/17 02:20:11;;;;;;;22.13;13.00;;;10.00;99.90;;;;;;6213959;23;20032;-78
2024/02/17 02:22:38;;;;;;;20.97;13.70;;;10.00;99.90;;;;;;6214606;23;20012;-77
2024/02/17 02:25:06;;;;;;;22.60;13.37;;;10.00;99.90;;;;;;6214894;23;20023;-77
2024/02/17 02:27:31;;;;;;;17.80;13.60;;;10.00;99.90;;;;;;6215697;23;20036;-78
2024/02/17 02:29:58;;;;;;;23.90;15.40;;;10.00;99.90;;;;;;6216137;23;20323;-77
2024/02/17 02:32:26;;;;;;;21.60;14.40;;;10.00;99.90;;;;;;6215856;23;20000;-78
2024/02/17 02:34:52;;;;;;;21.03;14.00;;;10.00;99.90;;;;;;6215318;23;20005;-77
2024/02/17 02:37:18;;;;;;;21.23;14.03;;;10.00;99.90;;;;;;6216059;23;20059;-78
2024/02/17 02:39:44;;;;;;;25.33;14.17;;;10.00;99.90;;;;;;6215718;23;20301;-77
2024/02/17 02:42:09;;;;;;;17.73;14.27;;;10.00;99.90;;;;;;6215638;23;20477;-78
2024/02/17 02:44:35;;;;;;;19.50;13.37;;;10.00;99.90;;;;;;6215414;23;20522;-78
2024/02/17 02:47:00;;;;;;;20.50;13.77;;;10.00;99.90;;;;;;6215703;23;20008;-78
2024/02/17 02:49:26;;;;;;;22.07;13.43;;;10.00;99.90;;;;;;6215973;23;20000;-77
2024/02/17 02:51:52;;;;;;;20.43;14.00;;;10.00;99.90;;;;;;6216307;23;20075;-78
2024/02/17 02:54:19;;;;;;;21.23;13.60;;;10.00;99.90;;;;;;6215402;23;20001;-77
2024/02/17 02:56:44;;;;;;;19.57;13.30;;;10.00;99.90;;;;;;6215707;23;20013;-77
2024/02/17 02:59:10;;;;;;;20.27;13.63;;;10.00;99.90;;;;;;6215666;23;20001;-78
2024/02/17 03:01:35;;;;;;;18.20;13.93;;;10.00;99.90;;;;;;6216201;23;20004;-77
2024/02/17 03:04:01;;;;;;;18.57;12.80;;;10.00;99.90;;;;;;6214952;23;19997;-78
2024/02/17 03:06:27;;;;;;;22.33;13.47;;;10.00;99.90;;;;;;6215653;23;20001;-78
2024/02/17 03:08:52;;;;;;;19.83;12.93;;;10.00;99.90;;;;;;6215394;23;20000;-77
2024/02/17 03:11:18;;;;;;;20.47;13.63;;;10.00;99.90;;;;;;6215217;23;20007;-77
2024/02/17 03:13:43;;;;;;;22.47;13.93;;;10.00;99.90;;;;;;6215569;23;20015;-78
2024/02/17 03:16:09;;;;;;;21.33;13.90;;;10.00;99.90;;;;;;6215411;23;20018;-77
2024/02/17 03:18:34;;;;;;;19.37;12.93;;;10.00;99.90;;;;;;6215306;23;20009;-77
2024/02/17 03:21:00;;;;;;;22.37;13.63;;;10.00;99.90;;;;;;6215819;23;20026;-77
2024/02/17 03:23:26;;;;;;;20.07;12.90;;;10.00;99.90;;;;;;6215343;23;20004;-78
2024/02/17 03:25:51;;;;;;;19.53;13.27;;;10.00;99.90;;;;;;6215060;23;20441;-77
2024/02/17 03:28:17;;;;;;;20.10;12.97;;;10.00;99.90;;;;;;6215028;23;20005;-77
2024/02/17 03:30:42;;;;;;;20.03;13.33;;;10.00;99.90;;;;;;6215666;23;20039;-77
2024/02/17 03:33:09;;;;;;;16.40;12.10;;;10.00;99.90;;;;;;6215070;23;20004;-78
2024/02/17 03:35:35;;;;;;;17.03;12.93;;;10.00;99.90;;;;;;6214296;23;20003;-77
2024/02/17 03:38:00;;;;;;;19.30;12.30;;;10.00;99.90;;;;;;6214941;23;20004;-78
2024/02/17 03:40:26;;;;;;;17.40;12.70;;;10.00;99.90;;;;;;6215384;23;20009;-78
2024/02/17 03:42:51;;;;;;;19.73;12.60;;;10.00;99.90;;;;;;6215167;23;20009;-78
2024/02/17 03:45:17;;;;;;;18.57;12.50;;;10.00;99.90;;;;;;6214969;23;20383;-77
2024/02/17 03:47:42;;;;;;;16.40;12.40;;;10.00;99.90;;;;;;6214870;23;20478;-78
2024/02/17 03:50:08;;;;;;;17.93;12.33;;;10.00;99.90;;;;;;6215313;23;20079;-77
2024/02/17 03:52:34;;;;;;;16.37;12.90;;;10.00;99.90;;;;;;6215338;23;20028;-77
2024/02/17 03:54:59;;;;;;;16.47;12.50;;;10.00;99.90;;;;;;6214361;23;19997;-78
2024/02/17 03:57:25;;;;;;;18.17;12.50;;;10.00;99.90;;;;;;6215288;23;20068;-77
2024/02/17 03:59:50;;;;;;;19.50;13.23;;;10.00;99.90;;;;;;6215155;23;20016;-77
2024/02/17 04:02:16;;;;;;;18.23;12.40;;;10.00;99.90;;;;;;6214594;23;20001;-78
2024/02/17 04:04:41;;;;;;;18.83;12.83;;;10.00;99.90;;;;;;6214408;23;20062;-78
2024/02/17 04:07:07;;;;;;;19.70;12.80;;;10.00;99.90;;;;;;6215149;23;20011;-78
2024/02/17 04:09:32;;;;;;;21.43;13.47;;;10.00;99.90;;;;;;6214824;23;20001;-77
2024/02/17 04:11:58;;;;;;;16.97;12.77;;;10.00;99.90;;;;;;6215103;23;20004;-77
2024/02/17 04:14:24;;;;;;;19.00;12.70;;;10.00;99.90;;;;;;6214645;23;20007;-78
2024/02/17 04:16:49;;;;;;;17.40;12.63;;;10.00;99.90;;;;;;6214781;23;20036;-78
2024/02/17 04:19:15;;;;;;;17.70;12.63;;;10.00;99.90;;;;;;6214997;23;19997;-77
2024/02/17 04:21:40;;;;;;;18.73;13.47;;;10.00;99.90;;;;;;6215390;23;19996;-77
2024/02/17 04:24:06;;;;;;;23.33;14.23;;;10.00;99.90;;;;;;6214350;23;20015;-78
2024/02/17 04:26:32;;;;;;;19.40;13.63;;;10.00;99.90;;;;;;6215197;23;20001;-77
2024/02/17 04:28:58;;;;;;;19.83;14.07;;;10.00;99.90;;;;;;6214826;23;20005;-78
2024/02/17 04:31:23;;;;;;;20.90;13.50;;;10.00;99.90;;;;;;6215256;23;20462;-77
2024/02/17 04:33:49;;;;;;;15.73;12.33;;;10.00;99.90;;;;;;6214672;23;20367;-77
2024/02/17 04:36:15;;;;;;;17.77;12.40;;;10.00;99.90;;;;;;6214704;23;20374;-77
2024/02/17 04:38:40;;;;;;;16.70;12.83;;;10.00;99.90;;;;;;6187881;23;19997;-78
2024/02/17 04:41:06;;;;;;;18.37;13.53;;;10.00;99.90;;;;;;6214422;23;20050;-78
2024/02/17 04:43:31;;;;;;;16.37;13.03;;;10.00;99.90;;;;;;6214823;23;20005;-77
2024/02/17 04:45:57;;;;;;;19.43;13.37;;;10.00;99.90;;;;;;6214270;23;19997;-77
2024/02/17 04:48:22;;;;;;;16.10;13.53;;;10.00;99.90;;;;;;6215011;23;20008;-78
2024/02/17 04:50:48;;;;;;;19.27;13.30;;;10.00;99.90;;;;;;6215324;23;20427;-77
2024/02/17 04:53:13;;;;;;;17.30;12.87;;;10.00;99.90;;;;;;6214504;23;20023;-78
2024/02/17 04:55:39;;;;;;;18.60;13.40;;;10.00;99.90;;;;;;6214170;23;19996;-77
2024/02/17 04:58:06;;;;;;;17.60;13.00;;;10.00;99.90;;;;;;6215123;23;20005;-77
2024/02/17 05:00:32;;;;;;;19.63;13.27;;;10.00;99.90;;;;;;6215173;23;20012;-78
2024/02/17 05:02:57;;;;;;;16.73;12.70;;;10.00;99.90;;;;;;6215024;23;20005;-77
2024/02/17 05:05:23;;;;;;;15.13;12.13;;;10.00;99.90;;;;;;6214686;23;20105;-77
2024/02/17 05:07:48;;;;;;;13.97;11.50;;;10.00;99.90;;;;;;6214628;23;20076;-78
2024/02/17 05:10:14;;;;;;;14.17;12.07;;;10.00;99.90;;;;;;6215317;23;20008;-77
2024/02/17 05:12:40;;;;;;;17.13;12.47;;;10.00;99.90;;;;;;6214366;23;20005;-77
2024/02/17 05:15:07;;;;;;;15.33;12.63;;;10.00;99.90;;;;;;6214482;23;20001;-77
2024/02/17 05:17:33;;;;;;;15.90;13.00;;;10.00;99.90;;;;;;6213951;23;20012;-77
2024/02/17 05:19:59;;;;;;;17.30;13.40;;;9.90;99.90;;;;;;6214977;23;20001;-78
2024/02/17 05:22:25;;;;;;;14.30;12.30;;;9.90;99.90;;;;;;6214635;23;20035;-78
2024/02/17 05:24:51;;;;;;;15.33;12.90;;;10.00;99.90;;;;;;6214206;23;20079;-77
2024/02/17 05:27:17;;;;;;;14.57;12.70;;;9.90;99.90;;;;;;6214664;23;20001;-78
2024/02/17 05:29:43;;;;;;;14.50;12.27;;;9.90;99.90;;;;;;6214883;23;20004;-77
2024/02/17 05:32:08;;;;;;;14.07;11.83;;;9.90;99.90;;;;;;6213220;23;20029;-77
2024/02/17 05:34:35;;;;;;;13.67;11.50;;;10.00;99.90;;;;;;6214214;23;20449;-78
2024/02/17 05:37:06;;;;;;;12.37;11.07;;;10.00;99.90;;;;;;6214563;23;20008;-78
2024/02/17 05:39:32;;;;;;;12.03;10.73;;;10.00;99.90;;;;;;6213934;23;20423;-77
2024/02/17 05:41:59;;;;;;;15.50;11.27;;;10.00;99.90;;;;;;6212412;23;20035;-78
2024/02/17 05:44:24;;;;;;;15.40;12.13;;;10.00;99.90;;;;;;6213145;23;20023;-78
2024/02/17 05:46:50;;;;;;;12.80;11.50;;;9.90;99.90;;;;;;6214587;23;20367;-78
2024/02/17 05:49:16;;;;;;;14.27;11.30;;;10.00;99.90;;;;;;6210899;23;20071;-78
2024/02/17 05:51:41;;;;;;;11.53;10.33;;;10.00;99.90;;;;;;6213968;23;20386;-78
2024/02/17 05:54:07;;;;;;;12.53;11.00;;;10.00;99.90;;;;;;6213427;23;20032;-77
2024/02/17 05:56:33;;;;;;;14.40;11.70;;;10.00;99.90;;;;;;6213614;23;20004;-77
2024/02/17 05:58:58;;;;;;;12.23;10.90;;;10.00;99.90;;;;;;6213881;23;20312;-78
2024/02/17 06:01:24;;;;;;;13.03;11.03;;;10.00;99.90;;;;;;6213695;23;20123;-70
2024/02/17 06:03:50;;;;;;;17.47;11.70;;;10.00;99.90;;;;;;6212814;23;20078;-69
2024/02/17 06:06:15;;;;;;;13.53;11.70;;;9.90;99.90;;;;;;6209977;23;20005;-78
2024/02/17 06:08:42;;;;;;;15.87;12.50;;;9.90;99.90;;;;;;6213069;23;20008;-77
2024/02/17 06:11:07;;;;;;;13.83;12.27;;;9.90;99.90;;;;;;6213501;23;20005;-77
2024/02/17 06:13:33;;;;;;;14.67;12.30;;;9.90;99.90;;;;;;6213489;23;20374;-78
2024/02/17 06:15:58;;;;;;;12.73;11.03;;;9.90;99.90;;;;;;6212662;23;20036;-77
2024/02/17 06:21:11;;;;;;;11.77;10.57;;;9.90;99.90;;;;;;6213079;23;20339;-77
2024/02/17 06:23:47;;;;;;;13.50;10.53;;;9.90;99.90;;;;;;6213130;23;20447;-78
2024/02/17 06:26:22;;;;;;;11.60;9.83;;;9.90;99.90;;;;;;6213188;23;20001;-78
2024/02/17 06:28:48;;;;;;;12.03;10.73;;;9.90;99.90;;;;;;6213572;23;20004;-77
2024/02/17 06:31:14;;;;;;;12.40;10.90;;;9.90;99.90;;;;;;6212968;23;20453;-78
2024/02/17 06:33:39;;;;;;;12.00;9.90;;;9.90;99.90;;;;;;6213484;23;20382;-77
2024/02/17 06:36:06;;;;;;;11.70;10.50;;;9.90;99.90;;;;;;6212875;23;20095;-78
2024/02/17 06:38:31;;;;;;;12.13;10.50;;;10.00;99.90;;;;;;6213191;23;20063;-78
2024/02/17 06:40:57;;;;;;;13.57;10.83;;;9.90;99.90;;;;;;6212237;23;19997;-77
2024/02/17 06:43:22;;;;;;;13.03;10.53;;;9.90;99.90;;;;;;6213505;23;20054;-77
2024/02/17 06:45:48;;;;;;;11.87;10.50;;;9.90;99.90;;;;;;6210842;23;20647;-77
2024/02/17 06:48:13;;;;;;;14.10;11.50;;;9.90;99.90;;;;;;6212901;23;20008;-78
2024/02/17 06:50:39;;;;;;;16.10;12.57;;;9.90;99.90;;;;;;6212610;23;20001;-77
2024/02/17 06:53:04;;;;;;;14.40;12.33;;;9.90;99.90;;;;;;6212823;23;20001;-78
2024/02/17 06:55:30;;;;;;;20.37;13.80;;;9.90;99.90;;;;;;6212655;23;20001;-77
2024/02/17 06:57:55;;;;;;;14.33;12.83;;;9.90;99.90;;;;;;6213072;23;20040;-78
2024/02/17 07:00:23;;;;;;;15.93;14.03;;;9.90;99.90;;;;;;6212535;23;20000;-77
2024/02/17 07:02:49;;;;;;;15.47;12.57;;;9.90;99.90;;;;;;6213031;23;20051;-77
2024/02/17 07:05:15;;;;;;;16.80;14.03;;;9.90;99.90;;;;;;6212708;23;20335;-77
2024/02/17 07:07:41;;;;;;;15.43;13.80;;;9.90;99.90;;;;;;6212773;23;20005;-77
2024/02/17 07:10:08;;;;;;;18.03;14.27;;;9.90;99.90;;;;;;6211634;23;20096;-77
2024/02/17 07:12:34;;;;;;;18.67;15.00;;;9.90;99.90;;;;;;6214633;23;20484;-77
2024/02/17 07:15:00;;;;;;;16.87;14.80;;;9.80;99.90;;;;;;6213368;23;20429;-77
2024/02/17 07:17:26;;;;;;;17.80;14.90;;;9.80;99.90;;;;;;6205676;23;20371;-76
2024/02/17 07:19:52;;;;;;;17.90;14.43;;;9.80;99.90;;;;;;6211904;23;20388;-77
2024/02/17 07:22:18;;;;;;;17.90;14.60;;;9.80;99.90;;;;;;6212759;23;20008;-77
2024/02/17 07:24:43;;;;;;;15.20;13.60;;;9.80;99.90;;;;;;6213027;23;20001;-77
2024/02/17 07:27:09;;;;;;;21.23;16.97;;;9.80;99.90;;;;;;6211714;23;20012;-77
2024/02/17 07:29:37;;;;;;;17.20;12.30;;;9.80;99.90;;;;;;6212167;23;20067;-77
2024/02/17 07:32:03;;;;;;;10.20;8.70;;;9.90;99.90;;;;;;6212683;23;20001;-77
2024/02/17 07:34:32;;;;;;;13.13;8.90;;;9.80;99.90;;;;;;6211939;23;20004;-76
2024/02/17 07:36:58;;;;;;;13.90;8.27;;;9.70;99.90;;;;;;6211944;23;20059;-77
2024/02/17 07:39:25;;;;;;;12.63;10.03;;;9.60;99.90;;;;;;6213274;23;20001;-77
2024/02/17 07:41:51;;;;;;;12.50;8.97;;;9.60;99.90;;;;;;6212783;23;20031;-77
2024/02/17 07:44:19;;;;;;;10.97;8.80;;;9.60;99.90;;;;;;6212219;23;20008;-77
2024/02/17 07:46:45;;;;;;;13.53;9.63;;;9.60;99.90;;;;;;6213952;23;20001;-78
2024/02/17 07:49:11;;;;;;;12.23;9.80;;;9.50;99.90;;;;;;6214081;23;20007;-77
2024/02/17 07:51:38;;;;;;;15.07;10.07;;;9.50;99.90;;;;;;6214279;23;20004;-77
2024/02/17 07:54:04;;;;;;;15.80;10.33;;;9.50;99.90;;;;;;6215642;23;20004;-79
2024/02/17 07:56:30;;;;;;;15.23;10.73;;;9.50;99.90;;;;;;6217129;23;19996;-79
2024/02/17 07:58:56;;;;;;;14.93;11.37;;;9.50;99.90;;;;;;6217339;23;20005;-79
2024/02/17 08:01:22;;;;;;;17.17;11.53;;;9.50;99.90;;;;;;6216420;23;20009;-79
2024/02/17 08:03:47;;;;;;;16.87;11.67;;;9.50;99.90;;;;;;6215391;23;20079;-78
2024/02/17 08:06:19;;;;;;;17.20;13.00;;;9.50;99.90;;;;;;6215730;23;19996;-79
2024/02/17 08:08:45;;;;;;;17.50;12.13;;;9.50;99.90;;;;;;6217034;23;20036;-79
2024/02/17 08:11:11;;;;;;;21.67;13.63;;;9.50;99.90;;;;;;6215832;23;20001;-79
2024/02/17 08:13:38;;;;;;;17.20;12.30;;;9.50;99.90;;;;;;6217356;23;20039;-79
2024/02/17 08:16:04;;;;;;;17.50;11.33;;;9.50;99.90;;;;;;6217061;23;20455;-79
2024/02/17 08:18:29;;;;;;;17.77;12.77;;;9.50;99.90;;;;;;6216558;23;20086;-78
2024/02/17 08:20:57;;;;;;;25.13;16.13;;;9.50;99.90;;;;;;6215225;23;20007;-79
2024/02/17 08:23:26;;;;;;;22.97;14.33;;;9.50;99.90;;;;;;6217219;23;20096;-79
2024/02/17 08:25:52;;;;;;;35.60;19.37;;;9.50;99.90;;;;;;6216194;23;20004;-79
2024/02/17 08:28:18;;;;;;;19.20;12.43;;;9.50;99.90;;;;;;6217390;23;20005;-79
2024/02/17 08:30:43;;;;;;;17.93;12.17;;;9.60;99.90;;;;;;6217151;23;20020;-78
2024/02/17 08:33:09;;;;;;;16.97;11.67;;;9.50;99.90;;;;;;6217147;23;20053;-79
2024/02/17 08:35:35;;;;;;;16.27;11.37;;;9.60;99.90;;;;;;6215658;23;20001;-79
2024/02/17 08:38:01;;;;;;;14.80;10.33;;;9.60;99.90;;;;;;6217138;23;20067;-78
2024/02/17 08:40:27;;;;;;;14.87;9.43;;;9.60;99.90;;;;;;6217469;23;20024;-79
2024/02/17 08:42:52;;;;;;;14.53;9.37;;;9.60;99.90;;;;;;6216039;23;20008;-79
2024/02/17 08:45:18;;;;;;;17.37;9.47;;;9.60;99.90;;;;;;6216688;23;20000;-79
2024/02/17 08:47:43;;;;;;;13.43;9.33;;;9.50;99.90;;;;;;6216763;23;20004;-78
2024/02/17 08:50:09;;;;;;;17.17;9.90;;;9.50;99.90;;;;;;6216340;23;20080;-79
2024/02/17 08:52:35;;;;;;;14.77;9.57;;;9.60;99.90;;;;;;6216506;23;20012;-79
2024/02/17 08:55:00;;;;;;;14.80;10.47;;;9.60;99.90;;;;;;6216622;23;20109;-79
2024/02/17 08:57:26;;;;;;;18.33;11.40;;;9.60;99.90;;;;;;6216098;23;20020;-79
2024/02/17 08:59:52;;;;;;;18.80;11.53;;;9.60;99.90;;;;;;6217050;23;20036;-79
2024/02/17 09:02:18;;;;;;;15.07;10.53;;;9.60;99.90;;;;;;6217464;23;20296;-79
2024/02/17 09:04:45;;;;;;;20.20;11.33;;;9.70;99.90;;;;;;6215967;23;20096;-79
2024/02/17 09:07:11;;;;;;;19.50;12.40;;;9.60;99.90;;;;;;6216808;23;20423;-79
2024/02/17 09:09:37;;;;;;;18.57;12.33;;;9.60;99.90;;;;;;6217489;23;20008;-70
2024/02/17 09:12:03;;;;;;;16.80;11.33;;;9.60;99.90;;;;;;6214371;23;20043;-77
2024/02/17 09:14:33;;;;;;;17.40;12.47;;;9.60;99.90;;;;;;6213518;23;20031;-68
2024/02/17 09:16:58;;;;;;;21.60;13.17;;;9.70;99.90;;;;;;6213509;23;20008;-77
2024/02/17 09:19:24;;;;;;;21.30;14.47;;;9.70;99.90;;;;;;6214285;23;20012;-77
2024/02/17 09:21:50;;;;;;;22.17;13.90;;;9.80;99.90;;;;;;6215542;23;20028;-77
2024/02/17 09:24:19;;;;;;;25.27;14.80;;;9.80;99.90;;;;;;6213151;23;20107;-76
2024/02/17 09:26:45;;;;;;;22.10;15.07;;;9.80;99.90;;;;;;6213257;23;20066;-80
2024/02/17 09:29:11;;;;;;;22.00;13.60;;;9.90;99.90;;;;;;6213761;23;20054;-77
2024/02/17 09:31:36;;;;;;;23.30;15.43;;;10.00;99.90;;;;;;6213165;23;20420;-77
2024/02/17 09:34:02;;;;;;;20.43;13.53;;;10.00;99.90;;;;;;6212739;23;20355;-76
2024/02/17 09:36:29;;;;;;;21.67;14.27;;;10.00;99.90;;;;;;6213188;23;20441;-76
2024/02/17 09:38:54;;;;;;;21.80;14.43;;;10.00;99.90;;;;;;6213687;23;20004;-76
2024/02/17 09:41:20;;;;;;;21.53;14.00;;;10.10;99.90;;;;;;6213041;23;20415;-77
2024/02/17 09:43:46;;;;;;;23.13;15.10;;;10.10;99.90;;;;;;6212353;23;20087;-76
2024/02/17 09:46:13;;;;;;;26.17;14.93;;;10.10;99.90;;;;;;6212135;23;20001;-76
2024/02/17 09:48:40;;;;;;;24.13;15.70;;;10.00;99.90;;;;;;6212400;23;20000;-77
2024/02/17 09:51:07;;;;;;;27.27;15.13;;;10.00;99.90;;;;;;6212387;23;20173;-76
2024/02/17 09:53:37;;;;;;;24.43;15.03;;;10.00;99.90;;;;;;6212369;23;20330;-76
2024/02/17 09:56:02;;;;;;;28.53;14.90;;;10.00;99.90;;;;;;6211845;23;20016;-76
2024/02/17 09:58:28;;;;;;;26.43;16.43;;;10.00;99.90;;;;;;6212961;23;20012;-77
2024/02/17 10:00:54;;;;;;;23.50;14.03;;;10.00;99.90;;;;;;6212824;23;20008;-78
2024/02/17 10:03:22;;;;;;;24.07;15.37;;;10.00;99.90;;;;;;6213599;23;20001;-78
2024/02/17 10:05:48;;;;;;;21.83;13.83;;;10.10;99.90;;;;;;6211996;23;20374;-77
2024/02/17 10:08:13;;;;;;;21.77;13.73;;;10.20;99.90;;;;;;6213466;23;20009;-78
2024/02/17 10:10:43;;;;;;;22.77;14.80;;;10.20;99.90;;;;;;6211670;23;20431;-77
2024/02/17 10:13:15;;;;;;;21.77;13.97;;;10.30;99.90;;;;;;6212984;23;19997;-77
2024/02/17 10:15:41;;;;;;;19.17;12.20;;;10.30;99.90;;;;;;6210655;23;20024;-77
2024/02/17 10:18:07;;;;;;;18.73;11.80;;;10.40;99.90;;;;;;6212615;23;20000;-77
2024/02/17 10:20:32;;;;;;;18.67;11.70;;;10.40;99.90;;;;;;6212208;23;20001;-76
2024/02/17 10:22:58;;;;;;;19.10;13.07;;;10.40;99.90;;;;;;6212851;23;20005;-77
2024/02/17 10:25:23;;;;;;;20.33;12.27;;;10.50;99.90;;;;;;6211721;23;20138;-77
2024/02/17 10:27:49;;;;;;;21.90;13.40;;;10.60;99.90;;;;;;6210102;23;20005;-76
2024/02/17 10:30:17;;;;;;;21.17;12.57;;;10.70;99.90;;;;;;6210749;23;20099;-77
2024/02/17 10:32:43;;;;;;;18.53;12.43;;;10.70;99.90;;;;;;6212096;23;19997;-76
2024/02/17 10:35:10;;;;;;;17.80;11.03;;;10.80;99.90;;;;;;6210988;23;20055;-77
2024/02/17 10:37:40;;;;;;;19.83;11.77;;;10.80;99.90;;;;;;6210845;23;20051;-77
2024/02/17 10:40:08;;;;;;;18.57;12.13;;;10.80;99.90;;;;;;6211630;23;20439;-77
2024/02/17 10:42:34;;;;;;;17.90;12.30;;;10.80;99.90;;;;;;6211658;23;20023;-76
2024/02/17 10:45:00;;;;;;;16.00;11.23;;;10.80;99.90;;;;;;6212309;23;20012;-77
2024/02/17 10:47:32;;;;;;;14.20;9.90;;;10.80;99.90;;;;;;6213602;23;20008;-78
2024/02/17 10:50:20;;;;;;;15.50;11.03;;;10.70;99.90;;;;;;6214411;23;20032;-78
2024/02/17 10:52:50;;;;;;;14.93;9.93;;;10.70;99.90;;;;;;6213777;23;20573;-78
2024/02/17 10:55:22;;;;;;;15.80;10.13;;;10.60;99.90;;;;;;6213135;23;20009;-78
2024/02/17 10:57:57;;;;;;;13.90;10.13;;;10.60;99.90;;;;;;6213025;23;20394;-79
2024/02/17 11:00:24;;;;;;;14.03;9.50;;;10.50;99.90;;;;;;6213243;23;20001;-78
2024/02/17 11:02:53;;;;;;;15.13;10.17;;;10.50;99.90;;;;;;6186983;23;20535;-77
2024/02/17 11:05:20;;;;;;;17.77;11.27;;;10.50;99.90;;;;;;6213495;23;20502;-77
2024/02/17 11:07:47;;;;;;;13.87;10.00;;;10.50;99.90;;;;;;6213521;23;20009;-77
2024/02/17 11:10:14;;;;;;;13.33;9.70;;;10.50;99.90;;;;;;6213532;23;20335;-78
2024/02/17 11:12:41;;;;;;;13.93;9.47;;;10.50;99.90;;;;;;6218601;23;20000;-80
2024/02/17 11:15:10;;;;;;;15.47;10.53;;;10.50;99.90;;;;;;6218722;23;20005;-79
2024/02/17 11:17:41;;;;;;;14.83;9.80;;;10.50;99.90;;;;;;6214044;23;20091;-78
2024/02/17 11:20:12;;;;;;;16.53;11.20;;;10.50;99.90;;;;;;6214552;23;20008;-78
2024/02/17 11:22:42;;;;;;;15.23;10.40;;;10.60;99.90;;;;;;6214089;23;20000;-78
2024/02/17 11:25:12;;;;;;;16.60;11.33;;;10.60;99.90;;;;;;6214287;23;20361;-82
2024/02/17 11:27:42;;;;;;;15.43;10.83;;;10.70;99.90;;;;;;6217067;23;20082;-78
2024/02/17 11:30:08;;;;;;;15.43;10.43;;;10.70;99.90;;;;;;6214659;23;20056;-78
2024/02/17 11:32:37;;;;;;;18.57;11.93;;;10.70;99.90;;;;;;6214200;23;19997;-78
2024/02/17 11:35:07;;;;;;;15.43;11.50;;;10.80;99.90;;;;;;6213887;23;20005;-79
2024/02/17 11:37:33;;;;;;;16.67;11.70;;;10.80;99.90;;;;;;6214297;23;20359;-79
2024/02/17 11:40:00;;;;;;;17.10;12.70;;;10.90;99.90;;;;;;6213032;23;20648;-78
2024/02/17 11:42:26;;;;;;;20.07;13.83;;;10.90;99.90;;;;;;6212805;23;20040;-78
2024/02/17 11:44:54;;;;;;;17.70;12.57;;;10.90;99.90;;;;;;6213559;23;20024;-79
2024/02/17 11:47:20;;;;;;;18.37;12.30;;;11.00;99.90;;;;;;6213514;23;20000;-78
2024/02/17 11:49:45;;;;;;;16.30;11.00;;;11.00;99.90;;;;;;6213522;23;20392;-77
2024/02/17 11:52:12;;;;;;;15.47;11.20;;;11.10;99.90;;;;;;6214127;23;20001;-79
2024/02/17 11:54:38;;;;;;;17.00;11.20;;;11.20;99.90;;;;;;6213016;23;20008;-78
2024/02/17 11:57:04;;;;;;;17.35;10.90;;;11.30;99.90;;;;;;6212009;23;20005;-77
2024/02/17 11:59:30;;;;;;;15.32;11.05;;;11.40;99.90;;;;;;6214207;23;19997;-79
2024/02/17 12:01:58;;;;;;;15.25;11.23;;;11.40;99.90;;;;;;6214466;23;20430;-78
2024/02/17 12:04:23;;;;;;;17.08;11.88;;;11.50;99.90;;;;;;6212766;23;20012;-78
2024/02/17 12:06:51;;;;;;;13.97;10.53;;;11.60;99.90;;;;;;6213061;23;20005;-78
2024/02/17 12:09:17;;;;;;;14.20;10.45;;;11.80;99.90;;;;;;6213909;23;20064;-78
2024/02/17 12:11:43;;;;;;;15.23;10.32;;;12.00;99.90;;;;;;6212273;23;20028;-77
2024/02/17 12:14:09;;;;;;;13.82;10.48;;;12.10;99.90;;;;;;6212489;23;20001;-78
2024/02/17 12:16:38;;;;;;;14.07;10.55;;;12.10;99.90;;;;;;6213085;23;20024;-77
2024/02/17 12:19:10;;;;;;;27.75;20.60;;;12.00;99.90;;;;;;6213560;23;20012;-77
2024/02/17 12:21:37;;;;;;;13.90;9.82;;;11.90;99.90;;;;;;6213163;23;20000;-76
2024/02/17 12:24:04;;;;;;;14.52;9.50;;;11.80;99.90;;;;;;6212071;23;20423;-77
2024/02/17 12:26:32;;;;;;;14.43;9.88;;;11.60;99.90;;;;;;6211487;23;20331;-77
2024/02/17 12:29:06;;;;;;;12.05;9.25;;;11.50;99.90;;;;;;6211712;23;20084;-76